Speedwell, TN (37870)

7:54 AM EDT on March 31, 2015 (GMT -0400)
Middlesboro | | Change Station
CLOSE
Current Station
Airport
Location: Middlesboro,
Elevation: 1155 ft
Nearby Weather Stations

Elev 1155 ft 36.61 °N, 83.74 °W | Updated 19 minutes ago

Clear
Clear
32 °F
Feels Like 32 °F
N
0
Wind Variable Wind from North

Today
High -- | Low -- °F
--% Chance of Precip.
Yesterday
High -- | Low -- °F
Precip. -- in
7:23 AM 7:56 PM
Waxing Gibbous, 86% visible
Pressure 30.04 in
Visibility 10.0 miles
Clouds Clear
Dew Point 31 °F
Humidity 96%
Rainfall 0.00 in
Snow Depth Not available.
UV 0 out of 12
Pollen 10.30 out of 12
Air Quality Not available.
Flu Activity Not available.
METAR K1A6 311135Z AUTO 00000KT 10SM CLR 00/M01 A3004 RMK AO2 T00001006

More Conditions Fewer Conditions

Pressure 30.04 in
Visibility 10.0 miles
Clouds Clear
Dew Point 31 °F
Humidity 96%
Rainfall 0.00 in
Snow Depth Not available.
UV 0 out of 12
Pollen 10.30 out of 12
Air Quality Not available.
Flu Activity Not available.
METAR K1A6 311135Z AUTO 00000KT 10SM CLR 00/M01 A3004 RMK AO2 T00001006

More Conditions Fewer Conditions

10-Day Weather Forecast

Almanac

Astronomy

Mar. 31, 2015 Rise Set
Actual Time
Civil Twilight
Nautical Twilight
Astronomical Twilight
Moon
Length of Visible Light
Length of Day
Tomorrow will be .
, % of the Moon is Illuminated

Today's Extremes

State Highs State Lows

Community

WunderPhotos

Upload Photos

1,809,745 photos uploaded!

WunderBlogs® & News

Nearby

Air Quality

  Air Quality AQ Index Pollutant
Not available.

Snow Depth

Station Depth Elevation

Earthquake Activity

City Distance Mag. Time & Date
Minimum magnitude displayed is 2.5.

Coastal Water Temperatures

Place Temperature

Stations

Nearby Weather Stations

Station Location Temp. Windchill Dew Point Humidity Wind Precip. Elev Updated Type